createdAt,value
2019-04-07T00:00:19.837Z,27.4
2019-04-07T00:01:10.216Z,27.4
2019-04-07T00:01:58.235Z,27.4
2019-04-07T00:02:48.518Z,27.4
2019-04-07T00:03:39.936Z,27.3
2019-04-07T00:04:28.109Z,27.3
2019-04-07T00:05:31.526Z,27.3
2019-04-07T00:06:07.476Z,27.2
2019-04-07T00:06:59.768Z,27.2
2019-04-07T00:07:50.126Z,27.1
2019-04-07T00:08:40.103Z,27.1
2019-04-07T00:09:28.658Z,27.1
2019-04-07T00:10:16.983Z,27
2019-04-07T00:11:08.323Z,26.9
2019-04-07T00:11:59.655Z,26.9
2019-04-07T00:12:46.473Z,26.9
2019-04-07T00:13:36.984Z,26.8
2019-04-07T00:14:27.181Z,26.8
2019-04-07T00:15:19.730Z,26.8
2019-04-07T00:16:08.917Z,26.7
2019-04-07T00:16:57.903Z,26.7
2019-04-07T00:17:48.369Z,26.6
2019-04-07T00:18:37.862Z,26.6
2019-04-07T00:19:29.345Z,26.6
2019-04-07T00:20:19.812Z,26.5
2019-04-07T00:21:09.973Z,26.5
2019-04-07T00:21:58.236Z,26.4
2019-04-07T00:22:46.509Z,26.4
2019-04-07T00:23:37.873Z,26.4
2019-04-07T00:24:26.315Z,26.3
2019-04-07T00:25:16.400Z,26.3
2019-04-07T00:26:08.514Z,26.3
2019-04-07T00:26:57.118Z,26.3
2019-04-07T00:27:47.349Z,26.2
2019-04-07T00:28:36.755Z,26.1
2019-04-07T00:29:29.329Z,26.1
2019-04-07T00:30:19.068Z,26.1
2019-04-07T00:31:08.425Z,26.1
2019-04-07T00:31:57.480Z,26
2019-04-07T00:32:48.173Z,26
2019-04-07T00:33:38.692Z,25.9
2019-04-07T00:34:31.541Z,25.9
2019-04-07T00:35:41.069Z,25.9
2019-04-07T00:36:11.871Z,25.8
2019-04-07T00:37:00.483Z,25.8
2019-04-07T00:37:50.641Z,25.8
2019-04-07T00:38:41.589Z,25.7
2019-04-07T00:39:30.466Z,25.6
2019-04-07T00:40:24.902Z,25.1
2019-04-07T00:41:13.264Z,25.3
2019-04-07T00:42:01.739Z,25.1
2019-04-07T00:42:51.363Z,25
2019-04-07T00:43:43.843Z,24.9
2019-04-07T00:44:35.285Z,24.9
2019-04-07T00:45:22.738Z,25.1
2019-04-07T00:46:14.115Z,25.4
2019-04-07T00:47:03.053Z,25.8
2019-04-07T00:47:54.581Z,26.1
2019-04-07T00:48:42.307Z,26.4
2019-04-07T00:49:32.166Z,26.7
2019-04-07T00:50:24.616Z,26.9
2019-04-07T00:51:12.272Z,27
2019-04-07T00:52:03.789Z,27.1
2019-04-07T00:52:55.475Z,27.3
2019-04-07T00:53:43.193Z,27.3
2019-04-07T00:54:33.127Z,27.3
2019-04-07T00:55:23.007Z,27.3
2019-04-07T00:56:13.189Z,27.3
2019-04-07T00:57:02.467Z,27.3
2019-04-07T00:57:52.951Z,27.3
2019-04-07T00:58:44.482Z,27.3
2019-04-07T00:59:35.135Z,27.2
2019-04-07T01:00:25.930Z,27.2
2019-04-07T01:01:14.155Z,27.1
2019-04-07T01:02:03.719Z,27.1
2019-04-07T01:02:55.397Z,27.1
2019-04-07T01:03:43.771Z,27
2019-04-07T01:04:34.285Z,26.9
2019-04-07T01:05:41.639Z,26.9
2019-04-07T01:06:12.904Z,26.9
2019-04-07T01:07:03.643Z,26.9
2019-04-07T01:07:54.206Z,26.8
2019-04-07T01:08:45.683Z,26.8
2019-04-07T01:09:35.492Z,26.8
2019-04-07T01:10:25.242Z,26.7
2019-04-07T01:11:13.433Z,26.7
2019-04-07T01:12:04.966Z,26.6
2019-04-07T01:12:55.559Z,26.6
2019-04-07T01:13:45.207Z,26.6
2019-04-07T01:14:33.549Z,26.5
2019-04-07T01:15:22.133Z,26.5
2019-04-07T01:16:13.138Z,26.4
2019-04-07T01:17:04.152Z,26.4
2019-04-07T01:17:53.546Z,26.4
2019-04-07T01:18:45.316Z,26.4
2019-04-07T01:19:36.543Z,26.3
2019-04-07T01:20:25.791Z,26.3
2019-04-07T01:21:12.727Z,26.3
2019-04-07T01:22:05.370Z,26.2
2019-04-07T01:22:56.131Z,26.2
2019-04-07T01:23:44.586Z,26.1
2019-04-07T01:24:37.260Z,26.1
2019-04-07T01:25:24.923Z,26.1
2019-04-07T01:26:13.816Z,26
2019-04-07T01:27:02.849Z,26
2019-04-07T01:27:54.406Z,25.9
2019-04-07T01:28:44.055Z,25.9
2019-04-07T01:29:35.624Z,25.9
2019-04-07T01:30:27.195Z,25.9
2019-04-07T01:31:14.887Z,25.8
2019-04-07T01:32:03.798Z,25.8
2019-04-07T01:32:53.168Z,25.8
2019-04-07T01:33:45.287Z,25.7
2019-04-07T01:34:36.134Z,25.4
2019-04-07T01:35:28.719Z,25.1
2019-04-07T01:36:15.035Z,25.4
2019-04-07T01:37:05.818Z,25.1
2019-04-07T01:37:57.050Z,24.9
2019-04-07T01:38:46.205Z,24.9
2019-04-07T01:39:35.633Z,24.9
2019-04-07T01:40:26.646Z,25.1
2019-04-07T01:41:15.505Z,25.4
2019-04-07T01:42:06.636Z,25.8
2019-04-07T01:42:56.592Z,26.1
2019-04-07T01:43:45.888Z,26.4
2019-04-07T01:44:37.148Z,26.6
2019-04-07T01:45:27.101Z,26.8
2019-04-07T01:46:16.380Z,27
2019-04-07T01:47:04.683Z,27.1
2019-04-07T01:47:56.387Z,27.3
2019-04-07T01:48:45.740Z,27.3
2019-04-07T01:49:34.783Z,27.3
2019-04-07T01:50:27.300Z,27.3
2019-04-07T01:51:14.531Z,27.3
2019-04-07T01:52:05.829Z,27.3
2019-04-07T01:52:56.000Z,27.3
2019-04-07T01:53:45.429Z,27.3
2019-04-07T01:54:38.344Z,27.2
2019-04-07T01:55:26.847Z,27.2
2019-04-07T01:56:18.330Z,27.1
2019-04-07T01:57:06.774Z,27.1
2019-04-07T01:57:58.662Z,27.1
2019-04-07T01:58:48.104Z,27
2019-04-07T01:59:37.532Z,26.9
2019-04-07T02:00:27.844Z,26.9
2019-04-07T02:01:18.822Z,26.9
2019-04-07T02:02:09.272Z,26.9
2019-04-07T02:02:57.731Z,26.8
2019-04-07T02:03:51.113Z,26.8
2019-04-07T02:04:38.902Z,26.8
2019-04-07T02:05:27.961Z,26.7
2019-04-07T02:06:19.851Z,26.7
2019-04-07T02:07:08.679Z,26.6
2019-04-07T02:07:57.794Z,26.6
2019-04-07T02:08:48.463Z,26.6
2019-04-07T02:09:41.088Z,26.6
2019-04-07T02:10:29.700Z,26.5
2019-04-07T02:11:19.234Z,26.4
2019-04-07T02:12:08.336Z,26.4
2019-04-07T02:12:59.837Z,26.4
2019-04-07T02:13:50.434Z,26.4
2019-04-07T02:14:39.277Z,26.3
2019-04-07T02:15:30.521Z,26.3
2019-04-07T02:16:18.231Z,26.3
2019-04-07T02:17:08.693Z,26.3
2019-04-07T02:18:00.129Z,26.2
2019-04-07T02:18:50.730Z,26.2
2019-04-07T02:19:40.452Z,26.1
2019-04-07T02:20:29.939Z,26.1
2019-04-07T02:21:20.692Z,26
2019-04-07T02:22:10.114Z,26
2019-04-07T02:22:59.817Z,25.9
2019-04-07T02:23:49.881Z,25.9
2019-04-07T02:24:43.090Z,25.9
2019-04-07T02:25:31.682Z,25.9
2019-04-07T02:26:20.423Z,25.8
2019-04-07T02:27:09.807Z,25.8
2019-04-07T02:28:00.250Z,25.8
2019-04-07T02:28:49.554Z,25.7
2019-04-07T02:29:42.434Z,25.3
2019-04-07T02:30:31.471Z,25.2
2019-04-07T02:31:20.963Z,25.2
2019-04-07T02:32:13.746Z,24.9
2019-04-07T02:33:04.921Z,24.8
2019-04-07T02:33:52.397Z,24.8
2019-04-07T02:34:41.427Z,24.8
2019-04-07T02:35:34.285Z,25.1
2019-04-07T02:36:50.435Z,25.4
2019-04-07T02:37:14.448Z,25.9
2019-04-07T02:38:00.537Z,26.1
2019-04-07T02:38:52.319Z,26.4
2019-04-07T02:39:44.848Z,26.6
2019-04-07T02:40:34.290Z,26.8
2019-04-07T02:41:23.696Z,27
2019-04-07T02:42:10.960Z,27.1
2019-04-07T02:43:05.136Z,27.2
2019-04-07T02:43:50.428Z,27.3
2019-04-07T02:44:42.442Z,27.3
2019-04-07T02:45:32.859Z,27.3
2019-04-07T02:46:23.654Z,27.3
2019-04-07T02:47:10.912Z,27.3
2019-04-07T02:48:02.884Z,27.3
2019-04-07T02:48:51.627Z,27.3
2019-04-07T02:49:44.189Z,27.2
2019-04-07T02:50:33.317Z,27.2
2019-04-07T02:51:20.842Z,27.1
2019-04-07T02:52:12.589Z,27.1
2019-04-07T02:53:07.501Z,27
2019-04-07T02:53:55.734Z,27
2019-04-07T02:54:42.078Z,26.9
2019-04-07T02:55:32.148Z,26.9
2019-04-07T02:56:25.112Z,26.9
2019-04-07T02:57:11.844Z,26.9
2019-04-07T02:58:02.819Z,26.8
2019-04-07T02:58:53.284Z,26.8
2019-04-07T02:59:50.053Z,26.8
2019-04-07T03:00:34.253Z,26.7
2019-04-07T03:01:24.071Z,26.7
2019-04-07T03:02:14.799Z,26.6
2019-04-07T03:03:05.277Z,26.6
2019-04-07T03:03:55.534Z,26.6
2019-04-07T03:07:38.988Z,26.4
2019-04-07T03:08:30.079Z,26.4
2019-04-07T03:09:20.460Z,26.4
2019-04-07T03:10:21.604Z,26.3
2019-04-07T03:10:44.387Z,26.3
2019-04-07T03:11:39.199Z,26.3
2019-04-07T03:12:25.064Z,26.2
2019-04-07T03:13:15.406Z,26.2
2019-04-07T03:14:04.698Z,26.2
2019-04-07T03:14:56.406Z,26.1
2019-04-07T03:15:44.210Z,26.1
2019-04-07T03:16:35.995Z,26.1
2019-04-07T03:17:23.855Z,26
2019-04-07T03:18:16.881Z,26
2019-04-07T03:19:05.242Z,25.9
2019-04-07T03:19:54.623Z,25.9
2019-04-07T03:20:47.388Z,25.9
2019-04-07T03:21:34.958Z,25.8
2019-04-07T03:22:26.483Z,25.8
2019-04-07T03:23:17.187Z,25.8
2019-04-07T03:24:06.823Z,25.5
2019-04-07T03:24:55.347Z,25.1
2019-04-07T03:25:48.483Z,25.2
2019-04-07T03:26:37.671Z,24.9
2019-04-07T03:27:24.565Z,24.8
2019-04-07T03:28:18.040Z,24.8
2019-04-07T03:29:06.760Z,24.7
2019-04-07T03:30:35.260Z,24.9
2019-04-07T03:31:32.145Z,25.5
2019-04-07T03:32:41.221Z,25.9
2019-04-07T03:34:06.270Z,26.3
2019-04-07T03:35:06.349Z,26.7
2019-04-07T03:38:04.549Z,27.2
2019-04-07T03:38:25.803Z,27.3
2019-04-07T03:39:12.724Z,27.3
2019-04-07T03:40:18.776Z,27.3
2019-04-07T03:41:06.071Z,27.3
2019-04-07T03:41:59.688Z,27.3
2019-04-07T03:42:29.773Z,27.2
2019-04-07T03:43:23.568Z,27.2
2019-04-07T03:44:16.917Z,27.2
2019-04-07T03:45:02.299Z,27.1
2019-04-07T03:45:51.861Z,27.1
2019-04-07T03:46:46.021Z,27.1
2019-04-07T03:47:33.509Z,27.1
2019-04-07T03:48:26.589Z,27
2019-04-07T03:49:13.844Z,26.9
2019-04-07T03:50:03.968Z,26.9
2019-04-07T03:51:05.390Z,26.9
2019-04-07T03:51:44.493Z,26.8
2019-04-07T03:52:36.983Z,26.8
2019-04-07T03:53:21.639Z,26.8
2019-04-07T03:54:16.612Z,26.8
2019-04-07T03:55:03.218Z,26.7
2019-04-07T03:56:10.706Z,26.7
2019-04-07T03:56:45.370Z,26.6
2019-04-07T03:57:32.419Z,26.6
2019-04-07T03:58:26.440Z,26.6
2019-04-07T03:59:14.655Z,26.6
2019-04-07T04:00:06.082Z,26.5
2019-04-07T04:00:56.275Z,26.5
2019-04-07T04:01:48.347Z,26.4
2019-04-07T04:02:35.907Z,26.4
2019-04-07T04:03:26.215Z,26.4
2019-04-07T04:04:14.023Z,26.4
2019-04-07T04:05:05.814Z,26.3
2019-04-07T04:06:00.628Z,26.3
2019-04-07T04:06:44.184Z,26.3
2019-04-07T04:07:55.591Z,26.2
2019-04-07T04:08:23.275Z,26.2
2019-04-07T04:09:15.943Z,26.1
2019-04-07T04:10:04.722Z,26.1
2019-04-07T04:10:56.689Z,26.1
2019-04-07T04:11:46.969Z,26
2019-04-07T04:12:36.228Z,26
2019-04-07T04:13:25.815Z,25.9
2019-04-07T04:14:16.457Z,25.9
2019-04-07T04:15:09.332Z,25.9
2019-04-07T04:15:55.183Z,25.8
2019-04-07T04:16:44.490Z,25.8
2019-04-07T04:17:37.560Z,25.8
2019-04-07T04:18:26.283Z,25.6
2019-04-07T04:19:19.330Z,25
2019-04-07T04:20:04.163Z,25.1
2019-04-07T04:20:54.791Z,24.9
2019-04-07T04:21:48.443Z,24.7
2019-04-07T04:22:39.516Z,24.7
2019-04-07T04:23:28.377Z,24.6
2019-04-07T04:24:19.893Z,24.8
2019-04-07T04:25:08.413Z,25.1
2019-04-07T04:26:47.490Z,25.9
2019-04-07T04:27:38.704Z,26.1
2019-04-07T04:28:26.953Z,26.4
2019-04-07T04:29:17.736Z,26.6
2019-04-07T04:30:14.419Z,26.8
2019-04-07T04:31:00.357Z,27
2019-04-07T04:31:47.909Z,27.1
2019-04-07T04:32:37.087Z,27.2
2019-04-07T04:34:19.086Z,27.3
2019-04-07T04:35:08.962Z,27.3
2019-04-07T04:35:56.909Z,27.2
2019-04-07T04:37:04.813Z,27.2
2019-04-07T04:38:10.863Z,27.2
2019-04-07T04:38:29.756Z,27.1
2019-04-07T04:39:26.904Z,27.1
2019-04-07T04:40:10.648Z,27.1
2019-04-07T04:40:58.704Z,27
2019-04-07T04:41:52.011Z,27
2019-04-07T04:42:42.561Z,26.9
2019-04-07T04:43:28.539Z,26.9
2019-04-07T04:44:18.528Z,26.8
2019-04-07T04:45:11.856Z,26.8
2019-04-07T04:46:01.295Z,26.8
2019-04-07T04:46:50.063Z,26.7
2019-04-07T04:47:39.155Z,26.7
2019-04-07T04:48:28.832Z,26.6
2019-04-07T04:49:21.606Z,26.6
2019-04-07T04:50:11.388Z,26.6
2019-04-07T04:50:58.509Z,26.6
2019-04-07T04:52:36.156Z,26.4
2019-04-07T04:53:28.961Z,26.4
2019-04-07T04:54:19.815Z,26.4
2019-04-07T04:55:07.625Z,26.4
2019-04-07T04:55:58.966Z,26.3
2019-04-07T04:56:49.057Z,26.3
2019-04-07T06:05:28.032Z,25.7
2019-04-07T06:06:16.386Z,25.6
2019-04-07T06:07:12.668Z,25
2019-04-07T06:07:54.663Z,24.9
2019-04-07T06:09:02.992Z,24.9
2019-04-07T06:09:44.657Z,24.6
2019-04-07T06:10:33.654Z,24.6
2019-04-07T06:11:19.402Z,24.6
2019-04-07T06:12:12.818Z,24.6
2019-04-07T06:13:01.503Z,24.9
2019-04-07T06:13:52.923Z,25.3
2019-04-07T06:14:34.482Z,25.7
2019-04-07T06:15:32.432Z,25.9
2019-04-07T06:16:14.054Z,26.3
2019-04-07T06:17:09.806Z,26.4
2019-04-07T06:18:05.124Z,26.7
2019-04-07T06:18:50.115Z,26.9
2019-04-07T06:19:31.497Z,27
2019-04-07T06:20:31.311Z,27.1
2019-04-07T06:21:19.919Z,27.1
2019-04-07T06:22:03.440Z,27.1
2019-04-07T06:23:04.632Z,27.2
2019-04-07T06:23:46.895Z,27.1
2019-04-07T06:24:45.980Z,27.1
2019-04-07T06:25:33.018Z,27.1
2019-04-07T06:26:23.739Z,27.1
2019-04-07T06:27:06.069Z,27.1
2019-04-07T06:28:02.159Z,27.1
2019-04-07T06:28:55.909Z,26.9
2019-04-07T06:29:40.977Z,26.9
2019-04-07T06:30:31.128Z,26.9
2019-04-07T06:31:19.576Z,26.9
2019-04-07T06:32:17.740Z,26.9
2019-04-07T06:32:58.766Z,26.8
2019-04-07T06:33:55.544Z,26.8
2019-04-07T06:34:35.357Z,26.8
2019-04-07T06:35:29.786Z,26.7
2019-04-07T06:36:26.723Z,26.6
2019-04-07T06:37:13.358Z,26.6
2019-04-07T06:38:08.935Z,26.6
2019-04-07T06:39:08.253Z,26.5
2019-04-07T06:39:41.511Z,26.5
2019-04-07T06:40:33.761Z,26.4
2019-04-07T06:41:19.378Z,26.4
2019-04-07T06:42:10.479Z,26.4
2019-04-07T06:43:06.314Z,26.4
2019-04-07T06:43:51.780Z,26.3
2019-04-07T06:44:39.049Z,26.3
2019-04-07T06:45:33.274Z,26.3
2019-04-07T06:46:16.655Z,26.2
2019-04-07T06:47:15.935Z,26.2
2019-04-07T06:47:53.974Z,26.2
2019-04-07T06:48:52.410Z,26.1
2019-04-07T06:49:48.680Z,26.1
2019-04-07T06:50:32.224Z,26.1
2019-04-07T06:51:19.148Z,26
2019-04-07T06:52:15.623Z,25.9
2019-04-07T06:52:57.685Z,25.9
2019-04-07T06:53:52.413Z,25.9
2019-04-07T06:54:40.373Z,25.9
2019-04-07T06:55:36.991Z,25.8
2019-04-07T06:56:21.247Z,25.8
2019-04-07T06:57:14.830Z,25.7
2019-04-07T06:57:58.221Z,25.6
2019-04-07T06:58:56.460Z,25.6
2019-04-07T06:59:35.506Z,25.5
2019-04-07T07:00:32.818Z,25.5
2019-04-07T07:01:20.016Z,25.4
2019-04-07T07:02:12.078Z,25.4
2019-04-07T07:03:04.854Z,25.3
2019-04-07T07:05:47.124Z,25.3
2019-04-07T07:06:22.934Z,25.2
2019-04-07T07:08:06.252Z,25.1
2019-04-07T07:09:13.112Z,25.1
2019-04-07T07:09:47.046Z,25
2019-04-07T07:10:59.869Z,24.9
2019-04-07T07:11:52.707Z,24.9
2019-04-07T07:12:43.871Z,24.9
2019-04-07T07:13:46.436Z,24.9
2019-04-07T07:14:07.768Z,24.8
2019-04-07T07:15:11.141Z,24.8
2019-04-07T07:15:54.001Z,24.4
2019-04-07T07:16:41.065Z,24.4
2019-04-07T07:17:33.155Z,24.7
2019-04-07T07:18:34.851Z,25
2019-04-07T07:19:15.152Z,24.8
2019-04-07T07:20:15.486Z,24.6
2019-04-07T07:20:48.821Z,24.4
2019-04-07T07:21:47.795Z,24.4
2019-04-07T07:22:33.619Z,24.6
2019-04-07T07:23:30.079Z,25
2019-04-07T07:24:07.648Z,25.4
2019-04-07T07:25:19.339Z,25.5
2019-04-07T07:25:52.808Z,25.8
2019-04-07T07:27:00.345Z,25.9
2019-04-07T07:27:28.101Z,26
2019-04-07T07:28:23.668Z,26
2019-04-07T07:29:30.870Z,26.1
2019-04-07T07:30:08.960Z,26.2
2019-04-07T07:30:52.851Z,26.2
2019-04-07T07:32:09.230Z,26.3
2019-04-07T07:32:29.136Z,26.3
2019-04-07T07:33:45.336Z,26.3
2019-04-07T07:34:11.022Z,26.3
2019-04-07T07:34:58.689Z,26.3
2019-04-07T07:35:51.808Z,26.3
2019-04-07T07:37:00.445Z,26.2
2019-04-07T07:37:33.869Z,26.2
2019-04-07T10:06:24.761Z,23.6
2019-04-07T10:07:19.316Z,23.6
2019-04-07T10:08:11.351Z,23.6
2019-04-07T10:08:53.862Z,23.6
2019-04-07T10:09:42.616Z,23.6
2019-04-07T10:10:37.140Z,23.6
2019-04-07T10:11:23.526Z,23.4
2019-04-07T10:12:11.891Z,23.4
2019-04-07T10:13:04.601Z,23.4
2019-04-07T10:13:55.371Z,23.3
2019-04-07T10:14:44.943Z,23.4
2019-04-07T10:15:32.813Z,23.3
2019-04-07T10:16:31.324Z,23.3
2019-04-07T10:17:14.360Z,23.2
2019-04-07T10:18:04.105Z,23.2
2019-04-07T10:18:52.122Z,23.2
2019-04-07T10:19:43.646Z,23.2
2019-04-07T10:20:40.769Z,23.1
2019-04-07T10:21:23.190Z,23.1
2019-04-07T10:22:16.566Z,23.1
2019-04-07T10:23:05.053Z,23.1
2019-04-07T10:23:58.686Z,23.1
2019-04-07T10:24:44.784Z,23
2019-04-07T10:25:39.069Z,23
2019-04-07T10:26:23.431Z,22.9
2019-04-07T10:27:14.691Z,22.9
2019-04-07T10:28:10.634Z,22.9
2019-04-07T10:29:04.409Z,22.9
2019-04-07T10:29:44.945Z,22.9
2019-04-07T10:30:36.000Z,22.9
2019-04-07T10:31:27.112Z,22.8
2019-04-07T10:32:15.990Z,22.8
2019-04-07T10:33:06.706Z,22.8
2019-04-07T10:33:56.234Z,22.8
2019-04-07T10:34:46.048Z,22.7
2019-04-07T10:35:34.890Z,22.8
2019-04-07T10:36:27.013Z,22.7
2019-04-07T10:37:20.913Z,22.7
2019-04-07T10:38:10.000Z,22.6
2019-04-07T10:38:56.473Z,22.6
2019-04-07T10:39:44.957Z,22.6
2019-04-07T10:40:41.174Z,22.6
2019-04-07T10:41:27.214Z,22.6
2019-04-07T10:42:18.028Z,22.6
2019-04-07T10:43:11.743Z,22.6
2019-04-07T10:43:56.799Z,22.6
2019-04-07T10:44:45.807Z,22.5
2019-04-07T10:45:35.006Z,22.5
2019-04-07T10:46:29.354Z,22.5
2019-04-07T10:47:16.022Z,22.4
2019-04-07T10:48:09.205Z,22.4
2019-04-07T10:48:57.732Z,22.4
2019-04-07T10:50:09.378Z,22.4
2019-04-07T10:50:40.463Z,22.4
2019-04-07T10:51:27.399Z,22.4
2019-04-07T10:52:17.922Z,22.4
2019-04-07T10:53:09.072Z,22.4
2019-04-07T10:53:58.662Z,22.4
2019-04-07T10:54:47.249Z,22.3
2019-04-07T10:55:38.214Z,22.3
2019-04-07T10:56:27.666Z,22.3
2019-04-07T10:57:18.856Z,22.3
2019-04-07T10:58:10.443Z,22.3
2019-04-07T10:58:59.876Z,22.3
2019-04-07T10:59:44.286Z,22.3
2019-04-07T11:00:36.666Z,22.3
2019-04-07T11:01:28.198Z,22.3
2019-04-07T11:02:19.562Z,22.2
2019-04-07T11:03:15.138Z,22.3
2019-04-07T11:03:59.933Z,22.2
2019-04-07T11:04:47.606Z,22.2
2019-04-07T11:05:39.342Z,22.2
2019-04-07T11:06:33.863Z,22.1
2019-04-07T11:07:22.618Z,22.1
2019-04-07T11:08:08.645Z,22.1
2019-04-07T11:09:00.228Z,22.2
2019-04-07T11:09:48.453Z,22.1
2019-04-07T11:10:56.498Z,22.1
2019-04-07T11:11:29.110Z,22.1
2019-04-07T11:12:17.792Z,22.1
2019-04-07T11:13:16.826Z,22.1
2019-04-07T11:13:57.800Z,22.1
2019-04-07T11:14:50.071Z,22.1
2019-04-07T11:15:39.853Z,22.1
2019-04-07T11:16:26.808Z,22.1
2019-04-07T11:17:21.544Z,22.1
2019-04-07T11:18:09.477Z,22
2019-04-07T11:18:59.792Z,22
2019-04-07T11:19:52.492Z,22
2019-04-07T11:20:38.416Z,22
2019-04-07T11:21:30.289Z,22
2019-04-07T11:22:18.766Z,22
2019-04-07T11:23:10.764Z,22
2019-04-07T11:23:57.759Z,22
2019-04-07T11:24:50.210Z,22
2019-04-07T11:25:40.559Z,22
2019-04-07T11:26:29.899Z,21.9
2019-04-07T11:27:21.690Z,21.9
2019-04-07T11:28:10.999Z,21.9
2019-04-07T11:29:00.130Z,21.9
2019-04-07T11:29:55.969Z,21.9
2019-04-07T11:30:40.912Z,21.9
2019-04-07T11:31:32.167Z,21.9
2019-04-07T11:32:18.119Z,21.9
2019-04-07T11:33:10.607Z,21.9
2019-04-07T11:33:59.394Z,21.9
2019-04-07T11:34:47.156Z,21.9
2019-04-07T11:35:46.127Z,21.9
2019-04-07T11:36:37.444Z,21.9
2019-04-07T11:37:25.043Z,21.9
2019-04-07T11:38:10.821Z,21.9
2019-04-07T11:39:01.216Z,21.9
2019-04-07T11:39:48.861Z,21.9
2019-04-07T11:41:00.040Z,21.8
2019-04-07T11:41:39.120Z,21.9
2019-04-07T11:42:22.982Z,21.8
2019-04-07T11:43:10.899Z,21.9
2019-04-07T11:43:58.544Z,21.8
2019-04-07T11:44:48.789Z,21.9
2019-04-07T11:45:37.678Z,21.8
2019-04-07T11:46:31.074Z,21.8
2019-04-07T11:47:19.693Z,21.8
2019-04-07T11:48:12.104Z,21.8
2019-04-07T11:49:04.139Z,21.8
2019-04-07T11:50:00.293Z,21.8
2019-04-07T11:50:42.271Z,21.8
2019-04-07T11:51:33.505Z,21.8
2019-04-07T11:52:21.152Z,21.8
2019-04-07T11:53:13.300Z,21.8
2019-04-07T11:54:01.502Z,21.8
2019-04-07T11:54:54.312Z,21.8
2019-04-07T11:55:46.470Z,21.8
2019-04-07T11:56:32.202Z,21.8
2019-04-07T11:57:23.088Z,21.7
2019-04-07T11:58:51.298Z,21.7
2019-04-07T11:59:13.381Z,21.7
2019-04-07T12:00:01.095Z,21.7
2019-04-07T12:00:58.125Z,21.6
2019-04-07T12:01:50.076Z,21.7
2019-04-07T12:02:41.406Z,21.6
2019-04-07T12:03:30.994Z,21.6
2019-04-07T12:06:37.484Z,21.5
2019-04-07T12:07:29.192Z,21.6
2019-04-07T12:08:15.037Z,21.6
2019-04-07T12:08:56.695Z,21.6
2019-04-07T12:09:44.520Z,21.6
2019-04-07T12:10:34.865Z,21.6
2019-04-07T12:11:27.733Z,21.6
2019-04-07T12:12:15.619Z,21.6
2019-04-07T12:13:05.866Z,21.6
2019-04-07T12:14:01.142Z,21.5
2019-04-07T12:14:53.449Z,21.5
2019-04-07T12:15:46.820Z,21.5
2019-04-07T12:16:31.352Z,21.5
2019-04-07T12:17:27.427Z,21.4
2019-04-07T12:18:10.008Z,21.4
2019-04-07T12:19:17.373Z,21.4
2019-04-07T12:19:47.310Z,21.4
2019-04-07T12:20:47.201Z,21.4
2019-04-07T12:21:48.104Z,21.4
2019-04-07T12:22:25.996Z,21.4
2019-04-07T12:23:08.154Z,21.4
2019-04-07T12:24:06.002Z,21.4
2019-04-07T12:25:09.329Z,21.4
2019-04-07T12:25:43.606Z,21.4
2019-04-07T12:26:27.013Z,21.4
2019-04-07T12:27:28.217Z,21.4
2019-04-07T12:28:06.592Z,21.4
2019-04-07T12:29:03.099Z,21.4
2019-04-07T12:29:45.936Z,21.3
2019-04-07T12:30:39.629Z,21.3
2019-04-07T12:31:26.907Z,21.4
2019-04-07T12:32:14.832Z,21.4
2019-04-07T12:33:14.087Z,21.3
2019-04-07T12:33:56.288Z,21.3
2019-04-07T12:34:52.321Z,21.3
2019-04-07T12:35:40.408Z,21.3
2019-04-07T12:36:38.653Z,21.3
2019-04-07T12:37:25.262Z,21.3
2019-04-07T12:38:19.233Z,21.3
2019-04-07T12:39:00.733Z,21.3
2019-04-07T12:39:57.833Z,21.3
2019-04-07T12:40:43.099Z,21.3
2019-04-07T12:41:46.243Z,21.3
2019-04-07T12:42:24.620Z,21.3
2019-04-07T12:43:20.648Z,21.3
2019-04-07T12:44:08.485Z,21.3
2019-04-07T12:44:47.342Z,21.3
2019-04-07T12:45:40.633Z,21.3
2019-04-07T12:46:26.815Z,21.3
2019-04-07T12:47:18.158Z,21.3
2019-04-07T12:48:07.925Z,21.2
2019-04-07T12:48:58.672Z,21.3
2019-04-07T12:50:00.492Z,21.2
2019-04-07T12:50:37.035Z,21.2
2019-04-07T12:51:32.851Z,21.2
2019-04-07T12:52:17.910Z,21.2
2019-04-07T12:53:36.742Z,21.2
2019-04-07T12:54:05.321Z,21.2
2019-04-07T12:54:56.863Z,21.2
2019-04-07T12:55:38.633Z,21.2
2019-04-07T12:56:36.592Z,21.2
2019-04-07T12:57:25.241Z,21.2
2019-04-07T13:02:39.193Z,21.1
2019-04-07T13:03:29.943Z,21.1
2019-04-07T13:04:36.365Z,21.1
2019-04-07T13:05:17.505Z,21.1
2019-04-07T13:05:59.060Z,21.1
2019-04-07T13:06:57.761Z,21.1
2019-04-07T13:07:42.501Z,21.1
2019-04-07T13:08:36.399Z,21.1
2019-04-07T13:09:17.601Z,21.1
2019-04-07T13:10:16.650Z,21.1
2019-04-07T13:10:59.026Z,21.1
2019-04-07T13:12:09.141Z,21.1
2019-04-07T13:12:44.314Z,21.1
2019-04-07T13:13:38.448Z,21
2019-04-07T13:14:30.092Z,21
2019-04-07T13:15:13.908Z,21
2019-04-07T13:16:06.544Z,21
2019-04-07T13:16:47.401Z,21
2019-04-07T13:17:48.443Z,21
2019-04-07T13:18:35.552Z,21
2019-04-07T13:19:30.172Z,21
2019-04-07T13:20:10.782Z,21
2019-04-07T13:21:04.365Z,21
2019-04-07T13:22:00.923Z,21
2019-04-07T13:22:43.618Z,20.9
2019-04-07T13:23:29.766Z,21
2019-04-07T13:25:07.763Z,21
2019-04-07T13:25:33.897Z,20.9
2019-04-07T13:26:18.684Z,21
2019-04-07T13:27:14.578Z,21
2019-04-07T13:27:56.763Z,20.9
2019-04-07T13:28:46.073Z,21
2019-04-07T13:29:38.659Z,20.9
2019-04-07T13:30:25.924Z,20.9
2019-04-07T13:31:16.138Z,20.9
2019-04-07T13:32:10.337Z,20.9
2019-04-07T13:33:16.168Z,20.9
2019-04-07T13:33:47.812Z,20.9
2019-04-07T13:34:45.343Z,20.9
2019-04-07T13:35:18.692Z,20.9
2019-04-07T13:36:17.615Z,20.9
2019-04-07T13:37:10.637Z,20.9
2019-04-07T13:38:01.206Z,20.9
2019-04-07T13:38:47.353Z,20.9
2019-04-07T13:39:49.373Z,20.9
2019-04-07T13:40:31.769Z,20.9
2019-04-07T13:41:23.328Z,20.9
2019-04-07T13:42:14.223Z,20.9
2019-04-07T13:43:09.375Z,20.9
2019-04-07T13:43:54.763Z,20.9
2019-04-07T13:44:45.877Z,20.9
2019-04-07T13:45:34.375Z,20.9
2019-04-07T13:46:48.926Z,20.9
2019-04-07T13:47:12.725Z,20.9
2019-04-07T13:48:02.573Z,20.9
2019-04-07T13:49:00.719Z,20.9
2019-04-07T13:49:47.877Z,20.9
2019-04-07T13:50:35.990Z,20.9
2019-04-07T13:51:18.185Z,20.9
2019-04-07T13:51:59.875Z,20.9
2019-04-07T13:53:12.715Z,20.9
2019-04-07T13:54:13.249Z,20.9
2019-04-07T13:54:45.319Z,20.9
2019-04-07T13:55:29.523Z,20.9
2019-04-07T13:56:24.264Z,20.9
2019-04-07T13:57:07.591Z,20.9
2019-04-07T13:58:05.460Z,20.9
2019-04-07T13:58:51.953Z,20.9
2019-04-07T13:59:45.619Z,20.9
2019-04-07T14:00:34.977Z,20.9
2019-04-07T14:01:24.321Z,20.9
2019-04-07T14:02:31.545Z,20.9
2019-04-07T14:02:58.725Z,20.9
2019-04-07T14:03:50.441Z,20.9
2019-04-07T14:05:11.491Z,20.9
2019-04-07T14:07:31.708Z,20.9
2019-04-07T14:08:14.748Z,20.9
2019-04-07T14:09:07.982Z,20.9
2019-04-07T14:09:56.009Z,20.9
2019-04-07T14:10:51.668Z,20.9
2019-04-07T14:11:35.022Z,20.9
2019-04-07T14:12:35.506Z,20.9
2019-04-07T14:13:23.595Z,20.9
2019-04-07T14:14:04.557Z,20.9
2019-04-07T16:07:32.737Z,20.7
2019-04-07T16:08:18.570Z,20.8
2019-04-07T16:10:04.355Z,20.8
2019-04-07T16:10:29.099Z,20.8
2019-04-07T16:11:17.726Z,20.8
2019-04-07T16:12:14.439Z,20.8
2019-04-07T16:13:16.360Z,20.8
2019-04-07T16:13:44.342Z,20.8
2019-04-07T16:14:33.817Z,20.8
2019-04-07T16:15:30.769Z,20.8
2019-04-07T16:16:13.452Z,20.8
2019-04-07T16:17:19.972Z,20.8
2019-04-07T16:18:03.299Z,20.8
2019-04-07T16:18:52.790Z,20.8
2019-04-07T16:20:40.319Z,20.8
2019-04-07T16:21:03.511Z,20.8
2019-04-07T16:21:55.403Z,20.8
2019-04-07T16:22:38.669Z,20.8
2019-04-07T16:23:37.472Z,20.8
2019-04-07T16:24:22.689Z,20.8
2019-04-07T16:25:14.325Z,20.8
2019-04-07T16:26:05.535Z,20.8
2019-04-07T16:26:54.695Z,20.8
2019-04-07T16:27:49.688Z,20.8
2019-04-07T16:28:33.617Z,20.8
2019-04-07T16:29:28.453Z,20.8
2019-04-07T16:30:11.008Z,20.8
2019-04-07T16:31:07.619Z,20.8
2019-04-07T16:31:48.922Z,20.8
2019-04-07T16:32:43.059Z,20.7
2019-04-07T16:33:37.167Z,20.8
2019-04-07T16:34:26.792Z,20.8
2019-04-07T16:35:16.734Z,20.8
2019-04-07T16:36:11.789Z,20.8
2019-04-07T16:37:00.351Z,20.8
2019-04-07T16:37:46.298Z,20.7
2019-04-07T16:38:36.523Z,20.8
2019-04-07T16:39:24.260Z,20.8
2019-04-07T16:40:20.135Z,20.8
2019-04-07T16:41:00.441Z,20.8
2019-04-07T16:41:56.155Z,20.7
2019-04-07T16:42:40.442Z,20.8
2019-04-07T16:43:47.764Z,20.8
2019-04-07T16:44:25.529Z,20.8
2019-04-07T16:45:20.174Z,20.8
2019-04-07T16:46:05.521Z,20.8
2019-04-07T16:46:56.380Z,20.8
2019-04-07T16:47:51.674Z,20.8
2019-04-07T16:48:28.566Z,20.7
2019-04-07T16:49:34.571Z,20.7
2019-04-07T16:50:12.200Z,20.7
2019-04-07T16:51:13.961Z,20.7
2019-04-07T16:51:52.089Z,20.7
2019-04-07T16:52:50.717Z,20.7
2019-04-07T16:53:30.802Z,20.7
2019-04-07T16:54:27.621Z,20.7
2019-04-07T16:55:21.145Z,20.7
2019-04-07T16:56:11.232Z,20.7
2019-04-07T16:57:00.496Z,20.7
2019-04-07T16:57:48.941Z,20.7
2019-04-07T16:58:42.111Z,20.7
2019-04-07T16:59:27.536Z,20.7